sensor_id;sensor_type;location;lat;lon;timestamp;temperature;humidity
47546;DHT22;50104;52.002;4.688;2023-06-04T00:04:59;16.70;58.70
47546;DHT22;50104;52.002;4.688;2023-06-04T00:10:00;16.60;58.80
47546;DHT22;50104;52.002;4.688;2023-06-04T00:15:00;16.50;59.00
47546;DHT22;50104;52.002;4.688;2023-06-04T00:20:02;16.40;59.00
47546;DHT22;50104;52.002;4.688;2023-06-04T00:25:03;16.40;59.30
47546;DHT22;50104;52.002;4.688;2023-06-04T00:30:05;16.20;59.40
47546;DHT22;50104;52.002;4.688;2023-06-04T00:35:06;16.20;59.40
47546;DHT22;50104;52.002;4.688;2023-06-04T00:40:07;16.10;59.60
47546;DHT22;50104;52.002;4.688;2023-06-04T00:45:09;16.00;59.90
47546;DHT22;50104;52.002;4.688;2023-06-04T00:50:11;15.90;59.90
47546;DHT22;50104;52.002;4.688;2023-06-04T00:55:12;15.80;59.90
47546;DHT22;50104;52.002;4.688;2023-06-04T01:00:13;15.70;60.20
47546;DHT22;50104;52.002;4.688;2023-06-04T01:10:18;15.50;60.90
47546;DHT22;50104;52.002;4.688;2023-06-04T01:15:19;15.40;60.80
47546;DHT22;50104;52.002;4.688;2023-06-04T01:25:39;15.20;61.40
47546;DHT22;50104;52.002;4.688;2023-06-04T01:30:44;15.10;61.50
47546;DHT22;50104;52.002;4.688;2023-06-04T01:35:46;15.00;61.50
47546;DHT22;50104;52.002;4.688;2023-06-04T01:40:47;14.90;61.70
47546;DHT22;50104;52.002;4.688;2023-06-04T01:45:48;14.80;62.00
47546;DHT22;50104;52.002;4.688;2023-06-04T01:50:48;14.70;61.70
47546;DHT22;50104;52.002;4.688;2023-06-04T01:55:50;14.70;62.20
47546;DHT22;50104;52.002;4.688;2023-06-04T02:00:51;14.60;62.20
47546;DHT22;50104;52.002;4.688;2023-06-04T02:05:53;14.50;62.40
47546;DHT22;50104;52.002;4.688;2023-06-04T02:10:54;14.40;62.50
47546;DHT22;50104;52.002;4.688;2023-06-04T02:15:54;14.30;62.70
47546;DHT22;50104;52.002;4.688;2023-06-04T02:20:56;14.30;62.60
47546;DHT22;50104;52.002;4.688;2023-06-04T02:25:58;14.20;63.00
47546;DHT22;50104;52.002;4.688;2023-06-04T02:30:58;14.20;62.70
47546;DHT22;50104;52.002;4.688;2023-06-04T02:35:59;14.10;63.00
47546;DHT22;50104;52.002;4.688;2023-06-04T02:41:01;14.00;62.90
47546;DHT22;50104;52.002;4.688;2023-06-04T02:46:02;14.00;63.10
47546;DHT22;50104;52.002;4.688;2023-06-04T02:51:03;13.90;63.40
47546;DHT22;50104;52.002;4.688;2023-06-04T02:56:05;13.90;63.50
47546;DHT22;50104;52.002;4.688;2023-06-04T03:01:06;13.80;63.20
47546;DHT22;50104;52.002;4.688;2023-06-04T03:06:07;13.80;63.50
47546;DHT22;50104;52.002;4.688;2023-06-04T03:11:09;13.70;63.70
47546;DHT22;50104;52.002;4.688;2023-06-04T03:16:09;13.60;63.70
47546;DHT22;50104;52.002;4.688;2023-06-04T03:21:10;13.60;63.70
47546;DHT22;50104;52.002;4.688;2023-06-04T03:26:14;13.50;63.60
47546;DHT22;50104;52.002;4.688;2023-06-04T03:31:15;13.50;63.80
47546;DHT22;50104;52.002;4.688;2023-06-04T03:36:16;13.50;63.80
47546;DHT22;50104;52.002;4.688;2023-06-04T03:41:17;13.40;63.70
47546;DHT22;50104;52.002;4.688;2023-06-04T03:46:17;13.40;63.80
47546;DHT22;50104;52.002;4.688;2023-06-04T03:51:18;13.30;63.70
47546;DHT22;50104;52.002;4.688;2023-06-04T03:56:19;13.30;64.00
47546;DHT22;50104;52.002;4.688;2023-06-04T04:01:20;13.30;64.10
47546;DHT22;50104;52.002;4.688;2023-06-04T04:06:21;13.20;64.30
47546;DHT22;50104;52.002;4.688;2023-06-04T04:11:22;13.20;64.50
47546;DHT22;50104;52.002;4.688;2023-06-04T04:16:23;13.20;64.60
47546;DHT22;50104;52.002;4.688;2023-06-04T04:21:24;13.20;64.50
47546;DHT22;50104;52.002;4.688;2023-06-04T04:26:25;13.10;64.60
47546;DHT22;50104;52.002;4.688;2023-06-04T04:31:27;13.10;64.90
47546;DHT22;50104;52.002;4.688;2023-06-04T04:36:28;13.10;65.00
47546;DHT22;50104;52.002;4.688;2023-06-04T04:41:29;13.10;65.20
47546;DHT22;50104;52.002;4.688;2023-06-04T04:46:31;13.10;65.10
47546;DHT22;50104;52.002;4.688;2023-06-04T04:51:32;13.10;65.40
47546;DHT22;50104;52.002;4.688;2023-06-04T04:56:33;13.20;65.30
47546;DHT22;50104;52.002;4.688;2023-06-04T05:01:35;13.20;65.60
47546;DHT22;50104;52.002;4.688;2023-06-04T05:06:37;13.20;65.50
47546;DHT22;50104;52.002;4.688;2023-06-04T05:11:38;13.20;65.40
47546;DHT22;50104;52.002;4.688;2023-06-04T05:16:39;13.30;65.60
47546;DHT22;50104;52.002;4.688;2023-06-04T05:21:41;13.30;65.60
47546;DHT22;50104;52.002;4.688;2023-06-04T05:26:42;13.30;65.60
47546;DHT22;50104;52.002;4.688;2023-06-04T05:31:43;13.40;65.60
47546;DHT22;50104;52.002;4.688;2023-06-04T05:36:44;13.40;65.70
47546;DHT22;50104;52.002;4.688;2023-06-04T05:41:44;13.50;65.50
47546;DHT22;50104;52.002;4.688;2023-06-04T05:46:45;13.50;65.70
47546;DHT22;50104;52.002;4.688;2023-06-04T05:51:46;13.60;65.60
47546;DHT22;50104;52.002;4.688;2023-06-04T05:56:47;13.60;65.60
47546;DHT22;50104;52.002;4.688;2023-06-04T06:01:49;13.70;65.50
47546;DHT22;50104;52.002;4.688;2023-06-04T06:06:50;13.70;65.60
47546;DHT22;50104;52.002;4.688;2023-06-04T06:11:51;13.80;65.80
47546;DHT22;50104;52.002;4.688;2023-06-04T06:16:52;13.90;66.30
47546;DHT22;50104;52.002;4.688;2023-06-04T06:21:53;13.90;67.00
47546;DHT22;50104;52.002;4.688;2023-06-04T06:26:54;14.00;67.50
47546;DHT22;50104;52.002;4.688;2023-06-04T06:31:55;14.10;68.10
47546;DHT22;50104;52.002;4.688;2023-06-04T06:36:56;14.30;69.20
47546;DHT22;50104;52.002;4.688;2023-06-04T06:41:57;14.60;69.60
47546;DHT22;50104;52.002;4.688;2023-06-04T06:46:58;15.10;69.00
47546;DHT22;50104;52.002;4.688;2023-06-04T06:52:01;15.60;68.10
47546;DHT22;50104;52.002;4.688;2023-06-04T06:57:02;16.20;66.40
47546;DHT22;50104;52.002;4.688;2023-06-04T07:02:03;16.80;65.00
47546;DHT22;50104;52.002;4.688;2023-06-04T07:07:05;17.40;63.30
47546;DHT22;50104;52.002;4.688;2023-06-04T07:12:06;17.90;62.20
47546;DHT22;50104;52.002;4.688;2023-06-04T07:17:07;18.40;60.70
47546;DHT22;50104;52.002;4.688;2023-06-04T07:22:08;18.80;60.40
47546;DHT22;50104;52.002;4.688;2023-06-04T07:27:13;19.20;59.40
47546;DHT22;50104;52.002;4.688;2023-06-04T07:32:14;19.60;58.30
47546;DHT22;50104;52.002;4.688;2023-06-04T07:37:15;19.90;56.90
47546;DHT22;50104;52.002;4.688;2023-06-04T07:42:16;20.20;56.90
47546;DHT22;50104;52.002;4.688;2023-06-04T07:47:17;20.50;56.00
47546;DHT22;50104;52.002;4.688;2023-06-04T07:52:21;20.80;55.80
47546;DHT22;50104;52.002;4.688;2023-06-04T07:57:22;21.10;55.20
47546;DHT22;50104;52.002;4.688;2023-06-04T08:02:23;21.30;55.50
47546;DHT22;50104;52.002;4.688;2023-06-04T08:07:24;21.50;54.70
47546;DHT22;50104;52.002;4.688;2023-06-04T08:12:25;21.80;54.70
47546;DHT22;50104;52.002;4.688;2023-06-04T08:17:26;22.00;54.70
47546;DHT22;50104;52.002;4.688;2023-06-04T08:22:26;22.20;54.30
47546;DHT22;50104;52.002;4.688;2023-06-04T08:27:29;22.40;53.80
47546;DHT22;50104;52.002;4.688;2023-06-04T08:32:31;22.50;53.50
47546;DHT22;50104;52.002;4.688;2023-06-04T08:37:32;22.60;53.60
47546;DHT22;50104;52.002;4.688;2023-06-04T08:42:41;22.70;53.70
47546;DHT22;50104;52.002;4.688;2023-06-04T08:47:52;22.80;54.20
47546;DHT22;50104;52.002;4.688;2023-06-04T08:52:55;22.90;54.70
47546;DHT22;50104;52.002;4.688;2023-06-04T08:57:56;23.00;54.80
47546;DHT22;50104;52.002;4.688;2023-06-04T09:02:57;23.20;55.40
47546;DHT22;50104;52.002;4.688;2023-06-04T09:08:00;23.30;55.20
47546;DHT22;50104;52.002;4.688;2023-06-04T09:13:03;23.40;55.10
47546;DHT22;50104;52.002;4.688;2023-06-04T09:18:07;23.60;55.20
47546;DHT22;50104;52.002;4.688;2023-06-04T09:23:14;23.80;55.20
47546;DHT22;50104;52.002;4.688;2023-06-04T09:28:15;23.90;55.10
47546;DHT22;50104;52.002;4.688;2023-06-04T09:33:17;24.10;55.00
47546;DHT22;50104;52.002;4.688;2023-06-04T09:38:17;24.30;54.90
47546;DHT22;50104;52.002;4.688;2023-06-04T09:43:22;24.50;55.10
47546;DHT22;50104;52.002;4.688;2023-06-04T09:48:24;24.60;54.40
47546;DHT22;50104;52.002;4.688;2023-06-04T09:53:24;24.80;54.50
47546;DHT22;50104;52.002;4.688;2023-06-04T09:58:29;25.00;54.60
47546;DHT22;50104;52.002;4.688;2023-06-04T10:03:32;25.20;53.90
47546;DHT22;50104;52.002;4.688;2023-06-04T10:08:34;25.40;54.10
47546;DHT22;50104;52.002;4.688;2023-06-04T10:13:53;25.60;53.70
47546;DHT22;50104;52.002;4.688;2023-06-04T10:18:55;25.80;53.30
47546;DHT22;50104;52.002;4.688;2023-06-04T10:23:57;26.00;53.00
47546;DHT22;50104;52.002;4.688;2023-06-04T10:29:00;26.20;53.10
47546;DHT22;50104;52.002;4.688;2023-06-04T10:34:02;26.40;52.90
47546;DHT22;50104;52.002;4.688;2023-06-04T10:39:04;26.60;52.50
47546;DHT22;50104;52.002;4.688;2023-06-04T10:44:05;26.80;52.40
47546;DHT22;50104;52.002;4.688;2023-06-04T10:49:09;27.00;51.80
47546;DHT22;50104;52.002;4.688;2023-06-04T10:54:22;27.20;51.50
47546;DHT22;50104;52.002;4.688;2023-06-04T10:59:27;27.40;50.90
47546;DHT22;50104;52.002;4.688;2023-06-04T11:04:27;27.60;50.20
47546;DHT22;50104;52.002;4.688;2023-06-04T11:09:28;27.80;50.00
47546;DHT22;50104;52.002;4.688;2023-06-04T11:14:29;27.90;50.70
47546;DHT22;50104;52.002;4.688;2023-06-04T11:19:37;28.10;49.90
47546;DHT22;50104;52.002;4.688;2023-06-04T11:24:38;28.20;48.60
47546;DHT22;50104;52.002;4.688;2023-06-04T11:29:39;28.40;49.20
47546;DHT22;50104;52.002;4.688;2023-06-04T11:34:40;28.60;48.20
47546;DHT22;50104;52.002;4.688;2023-06-04T11:39:41;28.80;48.70
47546;DHT22;50104;52.002;4.688;2023-06-04T11:44:45;29.00;48.10
47546;DHT22;50104;52.002;4.688;2023-06-04T11:49:54;29.10;47.60
47546;DHT22;50104;52.002;4.688;2023-06-04T11:54:56;29.30;46.90
47546;DHT22;50104;52.002;4.688;2023-06-04T11:59:57;29.40;47.00
47546;DHT22;50104;52.002;4.688;2023-06-04T12:04:58;29.60;47.20
47546;DHT22;50104;52.002;4.688;2023-06-04T12:10:06;29.80;46.50
47546;DHT22;50104;52.002;4.688;2023-06-04T12:15:08;30.00;46.70
47546;DHT22;50104;52.002;4.688;2023-06-04T12:20:10;30.10;46.60
47546;DHT22;50104;52.002;4.688;2023-06-04T12:25:11;30.20;46.00
47546;DHT22;50104;52.002;4.688;2023-06-04T12:30:13;30.40;46.50
47546;DHT22;50104;52.002;4.688;2023-06-04T12:35:13;30.50;46.00
47546;DHT22;50104;52.002;4.688;2023-06-04T12:40:16;30.60;45.20
47546;DHT22;50104;52.002;4.688;2023-06-04T12:45:17;30.80;44.90
47546;DHT22;50104;52.002;4.688;2023-06-04T12:50:18;30.90;45.60
47546;DHT22;50104;52.002;4.688;2023-06-04T12:55:18;31.00;45.50
47546;DHT22;50104;52.002;4.688;2023-06-04T13:00:19;31.10;45.40
47546;DHT22;50104;52.002;4.688;2023-06-04T13:05:20;31.20;45.20
47546;DHT22;50104;52.002;4.688;2023-06-04T13:10:21;31.30;46.00
47546;DHT22;50104;52.002;4.688;2023-06-04T13:15:22;31.30;45.70
47546;DHT22;50104;52.002;4.688;2023-06-04T13:20:22;31.50;45.60
47546;DHT22;50104;52.002;4.688;2023-06-04T13:25:23;31.50;44.80
47546;DHT22;50104;52.002;4.688;2023-06-04T13:30:24;31.60;44.80
47546;DHT22;50104;52.002;4.688;2023-06-04T13:35:25;31.70;44.60
47546;DHT22;50104;52.002;4.688;2023-06-04T13:40:26;31.80;44.60
47546;DHT22;50104;52.002;4.688;2023-06-04T13:45:27;31.80;44.60
47546;DHT22;50104;52.002;4.688;2023-06-04T13:50:28;31.90;44.10
47546;DHT22;50104;52.002;4.688;2023-06-04T13:55:29;32.00;43.80
47546;DHT22;50104;52.002;4.688;2023-06-04T14:00:30;32.10;43.60
47546;DHT22;50104;52.002;4.688;2023-06-04T14:05:31;32.20;43.80
47546;DHT22;50104;52.002;4.688;2023-06-04T14:10:32;32.30;43.60
47546;DHT22;50104;52.002;4.688;2023-06-04T14:15:33;32.40;43.20
47546;DHT22;50104;52.002;4.688;2023-06-04T14:20:34;32.40;43.60
47546;DHT22;50104;52.002;4.688;2023-06-04T14:25:34;32.50;43.40
47546;DHT22;50104;52.002;4.688;2023-06-04T14:30:37;32.50;43.40
47546;DHT22;50104;52.002;4.688;2023-06-04T14:35:37;32.60;43.40
47546;DHT22;50104;52.002;4.688;2023-06-04T14:40:39;32.60;43.70
47546;DHT22;50104;52.002;4.688;2023-06-04T14:45:40;32.60;43.30
47546;DHT22;50104;52.002;4.688;2023-06-04T14:50:42;32.70;43.80
47546;DHT22;50104;52.002;4.688;2023-06-04T14:55:43;32.70;43.60
47546;DHT22;50104;52.002;4.688;2023-06-04T15:00:45;32.70;43.80
47546;DHT22;50104;52.002;4.688;2023-06-04T15:05:45;32.70;43.70
47546;DHT22;50104;52.002;4.688;2023-06-04T15:10:46;32.80;43.30
47546;DHT22;50104;52.002;4.688;2023-06-04T15:15:47;32.80;43.30
47546;DHT22;50104;52.002;4.688;2023-06-04T15:20:48;32.80;42.70
47546;DHT22;50104;52.002;4.688;2023-06-04T15:25:49;32.80;43.30
47546;DHT22;50104;52.002;4.688;2023-06-04T15:30:50;32.80;43.30
47546;DHT22;50104;52.002;4.688;2023-06-04T15:35:50;32.80;44.10
47546;DHT22;50104;52.002;4.688;2023-06-04T15:40:51;32.70;43.20
47546;DHT22;50104;52.002;4.688;2023-06-04T15:45:52;32.70;43.00
47546;DHT22;50104;52.002;4.688;2023-06-04T15:50:53;32.70;42.60
47546;DHT22;50104;52.002;4.688;2023-06-04T15:55:53;32.60;43.00
47546;DHT22;50104;52.002;4.688;2023-06-04T16:00:54;32.60;42.80
47546;DHT22;50104;52.002;4.688;2023-06-04T16:05:55;32.50;43.30
47546;DHT22;50104;52.002;4.688;2023-06-04T16:10:56;32.40;42.90
47546;DHT22;50104;52.002;4.688;2023-06-04T16:15:57;32.30;43.00
47546;DHT22;50104;52.002;4.688;2023-06-04T16:20:58;32.20;43.20
47546;DHT22;50104;52.002;4.688;2023-06-04T16:25:58;32.20;43.70
47546;DHT22;50104;52.002;4.688;2023-06-04T16:30:59;32.10;43.50
47546;DHT22;50104;52.002;4.688;2023-06-04T16:36:00;32.00;43.80
47546;DHT22;50104;52.002;4.688;2023-06-04T16:41:01;31.90;43.20
47546;DHT22;50104;52.002;4.688;2023-06-04T16:46:02;31.80;43.30
47546;DHT22;50104;52.002;4.688;2023-06-04T16:51:03;31.70;43.50
47546;DHT22;50104;52.002;4.688;2023-06-04T16:56:04;31.50;43.10
47546;DHT22;50104;52.002;4.688;2023-06-04T17:01:05;31.40;44.70
47546;DHT22;50104;52.002;4.688;2023-06-04T17:06:08;31.30;44.70
47546;DHT22;50104;52.002;4.688;2023-06-04T17:11:09;31.10;44.40
47546;DHT22;50104;52.002;4.688;2023-06-04T17:16:10;31.00;44.50
47546;DHT22;50104;52.002;4.688;2023-06-04T17:21:11;30.80;44.50
47546;DHT22;50104;52.002;4.688;2023-06-04T17:26:12;30.60;44.60
47546;DHT22;50104;52.002;4.688;2023-06-04T17:31:12;30.40;44.70
47546;DHT22;50104;52.002;4.688;2023-06-04T17:36:19;30.20;44.90
47546;DHT22;50104;52.002;4.688;2023-06-04T17:41:20;30.00;44.80
47546;DHT22;50104;52.002;4.688;2023-06-04T17:46:21;29.80;45.50
47546;DHT22;50104;52.002;4.688;2023-06-04T17:51:22;29.60;44.90
47546;DHT22;50104;52.002;4.688;2023-06-04T17:56:23;29.30;45.20
47546;DHT22;50104;52.002;4.688;2023-06-04T18:01:23;29.10;45.50
47546;DHT22;50104;52.002;4.688;2023-06-04T18:06:25;28.80;45.80
47546;DHT22;50104;52.002;4.688;2023-06-04T18:11:26;28.50;46.10
47546;DHT22;50104;52.002;4.688;2023-06-04T18:16:27;28.30;46.20
47546;DHT22;50104;52.002;4.688;2023-06-04T18:21:27;28.00;46.50
47546;DHT22;50104;52.002;4.688;2023-06-04T18:26:28;27.80;47.10
47546;DHT22;50104;52.002;4.688;2023-06-04T18:31:29;27.50;47.60
47546;DHT22;50104;52.002;4.688;2023-06-04T18:36:30;27.20;47.80
47546;DHT22;50104;52.002;4.688;2023-06-04T18:41:31;26.90;48.10
47546;DHT22;50104;52.002;4.688;2023-06-04T18:46:57;26.60;48.40
47546;DHT22;50104;52.002;4.688;2023-06-04T18:51:58;26.30;48.80
47546;DHT22;50104;52.002;4.688;2023-06-04T18:56:59;25.90;49.30
47546;DHT22;50104;52.002;4.688;2023-06-04T19:02:00;25.60;49.60
47546;DHT22;50104;52.002;4.688;2023-06-04T19:07:02;25.30;50.10
47546;DHT22;50104;52.002;4.688;2023-06-04T19:12:03;25.00;50.50
47546;DHT22;50104;52.002;4.688;2023-06-04T19:17:04;24.70;51.00
47546;DHT22;50104;52.002;4.688;2023-06-04T19:22:05;24.40;51.20
47546;DHT22;50104;52.002;4.688;2023-06-04T19:27:06;24.00;51.60
47546;DHT22;50104;52.002;4.688;2023-06-04T19:32:06;23.70;52.00
47546;DHT22;50104;52.002;4.688;2023-06-04T19:37:07;23.40;52.60
47546;DHT22;50104;52.002;4.688;2023-06-04T19:42:08;23.10;53.00
47546;DHT22;50104;52.002;4.688;2023-06-04T19:47:09;22.80;53.60
47546;DHT22;50104;52.002;4.688;2023-06-04T19:52:10;22.60;53.90
47546;DHT22;50104;52.002;4.688;2023-06-04T19:57:11;22.30;54.50
47546;DHT22;50104;52.002;4.688;2023-06-04T20:02:12;22.00;55.00
47546;DHT22;50104;52.002;4.688;2023-06-04T20:07:13;21.80;55.40
47546;DHT22;50104;52.002;4.688;2023-06-04T20:12:14;21.60;55.80
47546;DHT22;50104;52.002;4.688;2023-06-04T20:17:16;21.30;56.30
47546;DHT22;50104;52.002;4.688;2023-06-04T20:22:17;21.10;56.60
47546;DHT22;50104;52.002;4.688;2023-06-04T20:27:18;20.90;56.90
47546;DHT22;50104;52.002;4.688;2023-06-04T20:32:19;20.70;57.40
47546;DHT22;50104;52.002;4.688;2023-06-04T20:37:20;20.50;57.60
47546;DHT22;50104;52.002;4.688;2023-06-04T20:42:22;20.30;57.90
47546;DHT22;50104;52.002;4.688;2023-06-04T20:47:23;20.10;58.00
47546;DHT22;50104;52.002;4.688;2023-06-04T20:52:24;19.90;58.40
47546;DHT22;50104;52.002;4.688;2023-06-04T20:57:24;19.70;58.80
47546;DHT22;50104;52.002;4.688;2023-06-04T21:02:25;19.60;59.10
47546;DHT22;50104;52.002;4.688;2023-06-04T21:07:26;19.40;59.30
47546;DHT22;50104;52.002;4.688;2023-06-04T21:12:27;19.20;59.60
47546;DHT22;50104;52.002;4.688;2023-06-04T21:17:28;19.10;59.90
47546;DHT22;50104;52.002;4.688;2023-06-04T21:22:28;18.90;60.00
47546;DHT22;50104;52.002;4.688;2023-06-04T21:27:29;18.80;60.40
47546;DHT22;50104;52.002;4.688;2023-06-04T21:32:55;18.60;60.60
47546;DHT22;50104;52.002;4.688;2023-06-04T21:37:56;18.50;60.70
47546;DHT22;50104;52.002;4.688;2023-06-04T21:42:57;18.30;60.90
47546;DHT22;50104;52.002;4.688;2023-06-04T21:47:58;18.20;61.00
47546;DHT22;50104;52.002;4.688;2023-06-04T21:52:59;18.10;61.20
47546;DHT22;50104;52.002;4.688;2023-06-04T21:58:00;18.00;61.30
47546;DHT22;50104;52.002;4.688;2023-06-04T22:03:01;17.90;61.10
47546;DHT22;50104;52.002;4.688;2023-06-04T22:08:01;17.80;61.60
47546;DHT22;50104;52.002;4.688;2023-06-04T22:13:02;17.60;62.10
47546;DHT22;50104;52.002;4.688;2023-06-04T22:18:06;17.50;62.20
47546;DHT22;50104;52.002;4.688;2023-06-04T22:23:06;17.50;61.70
47546;DHT22;50104;52.002;4.688;2023-06-04T22:28:07;17.30;62.10
47546;DHT22;50104;52.002;4.688;2023-06-04T22:33:08;17.20;62.40
47546;DHT22;50104;52.002;4.688;2023-06-04T22:38:09;17.10;63.00
47546;DHT22;50104;52.002;4.688;2023-06-04T22:43:10;17.00;63.30
47546;DHT22;50104;52.002;4.688;2023-06-04T22:48:11;16.90;63.60
47546;DHT22;50104;52.002;4.688;2023-06-04T22:53:12;16.80;63.70
47546;DHT22;50104;52.002;4.688;2023-06-04T22:58:13;16.70;64.30
47546;DHT22;50104;52.002;4.688;2023-06-04T23:03:14;16.60;65.00
47546;DHT22;50104;52.002;4.688;2023-06-04T23:08:16;16.60;64.60
47546;DHT22;50104;52.002;4.688;2023-06-04T23:13:17;16.50;64.90
47546;DHT22;50104;52.002;4.688;2023-06-04T23:18:17;16.40;64.60
47546;DHT22;50104;52.002;4.688;2023-06-04T23:23:18;16.30;64.80
47546;DHT22;50104;52.002;4.688;2023-06-04T23:28:19;16.30;65.00
47546;DHT22;50104;52.002;4.688;2023-06-04T23:33:20;16.20;65.20
47546;DHT22;50104;52.002;4.688;2023-06-04T23:38:22;16.10;65.20
47546;DHT22;50104;52.002;4.688;2023-06-04T23:43:23;16.00;65.30
47546;DHT22;50104;52.002;4.688;2023-06-04T23:48:24;15.90;65.40
47546;DHT22;50104;52.002;4.688;2023-06-04T23:53:25;15.90;65.70
47546;DHT22;50104;52.002;4.688;2023-06-04T23:58:26;15.80;66.30
